createdAt,value
2022-12-25T00:01:26.765Z,12.83
2022-12-25T00:03:57.591Z,14.47
2022-12-25T00:06:28.484Z,136.70
2022-12-25T00:08:57.536Z,160.57
2022-12-25T00:11:26.547Z,110.70
2022-12-25T00:13:55.659Z,59.43
2022-12-25T00:16:27.188Z,47.40
2022-12-25T00:18:58.885Z,53.73
2022-12-25T00:21:30.031Z,42.77
2022-12-25T00:24:00.231Z,44.63
2022-12-25T00:26:30.972Z,24.53
2022-12-25T00:29:00.253Z,15.73
2022-12-25T00:31:29.406Z,18.43
2022-12-25T00:33:58.979Z,18.30
2022-12-25T00:36:29.352Z,12.80
2022-12-25T00:38:58.357Z,19.10
2022-12-25T00:41:41.346Z,20.13
2022-12-25T00:44:12.467Z,25.87
2022-12-25T00:46:42.229Z,18.17
2022-12-25T00:49:11.960Z,25.57
2022-12-25T00:51:42.387Z,36.57
2022-12-25T00:54:11.817Z,58.10
2022-12-25T00:56:40.867Z,32.33
2022-12-25T00:59:09.941Z,29.20
2022-12-25T01:01:40.115Z,51.77
2022-12-25T01:04:09.777Z,39.47
2022-12-25T01:06:39.208Z,16.40
2022-12-25T01:09:27.634Z,13.37
2022-12-25T01:11:56.666Z,22.03
2022-12-25T01:14:25.726Z,19.73
2022-12-25T01:16:54.823Z,19.77
2022-12-25T01:19:23.863Z,33.53
2022-12-25T01:21:53.161Z,39.47
2022-12-25T01:24:23.544Z,47.40
2022-12-25T01:26:52.586Z,26.10
2022-12-25T01:29:21.651Z,28.13
2022-12-25T01:31:50.839Z,19.97
2022-12-25T01:34:19.924Z,25.50
2022-12-25T01:36:48.927Z,31.67
2022-12-25T01:39:17.923Z,23.93
2022-12-25T01:41:48.330Z,24.73
2022-12-25T01:44:54.906Z,25.77
2022-12-25T01:47:23.952Z,21.90
2022-12-25T01:49:53.024Z,22.13
2022-12-25T01:52:24.860Z,22.50
2022-12-25T01:54:58.179Z,19.87
2022-12-25T01:57:32.373Z,23.37
2022-12-25T02:00:02.866Z,24.20
2022-12-25T02:02:34.366Z,24.97
2022-12-25T02:05:08.896Z,18.67
2022-12-25T02:07:41.180Z,34.30
2022-12-25T02:10:12.203Z,32.93
2022-12-25T02:12:45.081Z,24.73
2022-12-25T02:15:17.807Z,23.67
2022-12-25T02:17:57.179Z,32.87
2022-12-25T02:20:48.034Z,27.57
2022-12-25T02:23:39.883Z,15.50
2022-12-25T02:26:19.198Z,19.90
2022-12-25T02:28:58.316Z,14.87
2022-12-25T02:31:36.782Z,17.93
2022-12-25T02:34:13.926Z,18.93
2022-12-25T02:36:50.961Z,14.97
2022-12-25T02:39:44.154Z,17.20
2022-12-25T02:42:17.590Z,59.70
2022-12-25T02:45:08.333Z,21.30
2022-12-25T02:47:57.067Z,56.60
2022-12-25T02:50:44.653Z,37.43
2022-12-25T02:53:31.655Z,51.07
2022-12-25T02:56:18.701Z,113.43
2022-12-25T02:59:06.846Z,46.80
2022-12-25T03:01:56.684Z,68.20
2022-12-25T03:04:45.808Z,56.83
2022-12-25T03:07:20.451Z,53.43
2022-12-25T03:10:12.049Z,74.03
2022-12-25T03:12:48.115Z,68.67
2022-12-25T03:15:35.925Z,85.90
2022-12-25T03:18:10.691Z,94.50
2022-12-25T03:20:57.739Z,41.87
2022-12-25T03:23:49.682Z,33.60
2022-12-25T03:26:37.449Z,69.27
2022-12-25T03:29:06.752Z,24.13
2022-12-25T03:31:46.250Z,54.90
2022-12-25T03:34:48.972Z,37.63
2022-12-25T03:37:49.639Z,13.53
2022-12-25T03:40:53.109Z,48.30
2022-12-25T03:43:47.816Z,29.80
2022-12-25T03:46:37.399Z,19.37
2022-12-25T03:49:31.408Z,48.27
2022-12-25T03:52:22.004Z,41.53
2022-12-25T03:55:10.044Z,14.60
2022-12-25T03:57:56.771Z,32.17
2022-12-25T04:00:43.203Z,49.37
2022-12-25T04:03:29.884Z,36.63
2022-12-25T04:06:27.802Z,73.50
2022-12-25T04:09:15.662Z,116.97
2022-12-25T04:12:03.185Z,83.20
2022-12-25T04:14:49.802Z,61.70
2022-12-25T04:17:36.152Z,75.97
2022-12-25T04:20:23.436Z,30.70
2022-12-25T04:23:10.217Z,27.33
2022-12-25T04:26:12.452Z,28.53
2022-12-25T04:28:59.094Z,21.77
2022-12-25T04:31:45.872Z,24.47
2022-12-25T04:34:32.963Z,18.40
2022-12-25T04:37:02.045Z,17.40
2022-12-25T04:39:31.082Z,15.93
2022-12-25T04:42:01.502Z,14.47
2022-12-25T04:44:30.519Z,16.83
2022-12-25T04:46:59.548Z,29.87
2022-12-25T04:49:28.651Z,17.30
2022-12-25T04:51:57.711Z,28.87
2022-12-25T04:54:26.752Z,14.13
2022-12-25T04:56:55.864Z,19.97
2022-12-25T04:59:26.425Z,18.67
2022-12-25T05:01:55.518Z,12.03
2022-12-25T05:04:24.686Z,16.40
2022-12-25T05:06:53.794Z,15.83
2022-12-25T05:09:22.888Z,13.60
2022-12-25T05:11:52.140Z,31.27
2022-12-25T05:14:21.215Z,16.30
2022-12-25T05:16:51.682Z,16.30
2022-12-25T05:19:20.704Z,30.10
2022-12-25T05:21:49.744Z,36.50
2022-12-25T05:24:18.792Z,31.27
2022-12-25T05:26:47.867Z,41.73
2022-12-25T05:29:16.920Z,37.17
2022-12-25T05:31:45.984Z,49.67
2022-12-25T05:34:16.387Z,57.87
2022-12-25T05:36:45.440Z,12.20
2022-12-25T05:39:14.425Z,34.77
2022-12-25T05:41:43.497Z,57.07
2022-12-25T05:44:12.523Z,30.33
2022-12-25T05:46:41.757Z,16.77
2022-12-25T05:49:10.859Z,16.40
2022-12-25T05:51:41.603Z,13.53
2022-12-25T05:54:10.634Z,13.93
2022-12-25T05:56:39.675Z,14.03
2022-12-25T05:59:08.745Z,17.50
2022-12-25T06:01:38.156Z,15.60
2022-12-25T06:04:12.386Z,15.27
2022-12-25T06:06:43.323Z,14.97
2022-12-25T06:09:14.247Z,14.80
2022-12-25T06:11:43.386Z,14.30
2022-12-25T06:14:13.971Z,17.90
2022-12-25T06:16:43.228Z,19.43
2022-12-25T06:19:12.317Z,15.73
2022-12-25T06:21:42.694Z,14.13
2022-12-25T06:24:16.257Z,19.83
2022-12-25T06:26:50.017Z,13.67
2022-12-25T06:29:19.086Z,16.30
2022-12-25T06:31:48.142Z,18.67
2022-12-25T06:34:17.454Z,15.37
2022-12-25T06:36:47.859Z,14.47
2022-12-25T06:39:17.149Z,23.23
2022-12-25T06:41:46.408Z,26.33
2022-12-25T06:44:15.450Z,20.03
2022-12-25T06:46:44.467Z,17.93
2022-12-25T06:49:13.485Z,22.47
2022-12-25T06:51:42.550Z,16.10
2022-12-25T06:54:12.920Z,21.70
2022-12-25T06:56:42.000Z,20.43
2022-12-25T06:59:11.911Z,19.10
2022-12-25T07:01:47.088Z,17.93
2022-12-25T07:04:20.581Z,17.83
2022-12-25T07:06:49.605Z,20.53
2022-12-25T07:09:20.017Z,22.73
2022-12-25T07:11:49.017Z,28.37
2022-12-25T07:14:23.890Z,15.10
2022-12-25T07:16:53.621Z,18.73
2022-12-25T07:19:22.774Z,16.70
2022-12-25T07:21:51.986Z,21.37
2022-12-25T07:24:23.157Z,16.60
2022-12-25T07:26:53.100Z,21.83
2022-12-25T07:29:22.176Z,17.27
2022-12-25T07:31:51.361Z,18.10
2022-12-25T07:34:20.531Z,15.77
2022-12-25T07:36:49.602Z,13.77
2022-12-25T07:39:18.644Z,15.80
2022-12-25T07:41:49.163Z,12.57
2022-12-25T07:44:18.399Z,16.13
2022-12-25T07:46:47.655Z,18.80
2022-12-25T07:49:16.689Z,23.53
2022-12-25T07:51:45.706Z,15.77
2022-12-25T07:54:14.730Z,14.87
2022-12-25T07:56:43.808Z,23.17
2022-12-25T07:59:14.168Z,16.00
2022-12-25T08:01:43.287Z,13.40
2022-12-25T08:04:12.575Z,23.13
2022-12-25T08:06:41.617Z,18.50
2022-12-25T08:09:13.102Z,23.60
2022-12-25T08:11:45.812Z,23.33
2022-12-25T08:14:16.769Z,21.67
2022-12-25T08:16:46.924Z,17.33
2022-12-25T08:19:16.061Z,16.97
2022-12-25T08:21:45.173Z,14.83
2022-12-25T08:24:14.206Z,22.77
2022-12-25T08:26:43.199Z,17.93
2022-12-25T08:29:12.228Z,15.07
2022-12-25T08:31:46.416Z,19.20
2022-12-25T08:34:15.990Z,15.53
2022-12-25T08:36:45.023Z,19.63
2022-12-25T08:39:14.103Z,15.50
2022-12-25T08:41:43.206Z,17.93
2022-12-25T08:44:15.229Z,9.93
2022-12-25T08:46:45.761Z,15.27
2022-12-25T08:49:14.874Z,16.23
2022-12-25T08:51:45.964Z,7.93
2022-12-25T08:54:15.006Z,13.63
2022-12-25T08:56:44.019Z,11.90
2022-12-25T08:59:13.111Z,19.00
2022-12-25T09:01:42.285Z,12.80
2022-12-25T09:04:12.776Z,12.93
2022-12-25T09:06:41.876Z,23.07
2022-12-25T09:09:10.941Z,15.03
2022-12-25T09:11:40.001Z,21.57
2022-12-25T09:14:09.610Z,12.43
2022-12-25T09:16:38.707Z,14.67
2022-12-25T09:19:07.750Z,13.50
2022-12-25T09:21:38.191Z,16.27
2022-12-25T09:24:07.723Z,10.93
2022-12-25T09:26:37.640Z,18.73
2022-12-25T09:29:06.724Z,10.73
2022-12-25T09:31:35.803Z,15.03
2022-12-25T09:34:04.873Z,15.77
2022-12-25T09:36:33.939Z,18.40
2022-12-25T09:39:04.710Z,14.37
2022-12-25T09:41:39.113Z,13.87
2022-12-25T09:44:12.557Z,16.63
2022-12-25T09:46:44.568Z,11.90
2022-12-25T09:49:19.950Z,15.07
2022-12-25T09:51:53.236Z,10.43
2022-12-25T09:54:33.702Z,19.37
2022-12-25T09:57:03.152Z,14.40
2022-12-25T09:59:32.191Z,8.07
2022-12-25T10:02:36.808Z,15.50
2022-12-25T10:05:34.016Z,14.20
2022-12-25T10:08:12.943Z,13.70
2022-12-25T10:10:53.655Z,10.23
2022-12-25T10:13:38.010Z,12.73
2022-12-25T10:16:19.459Z,14.13
2022-12-25T10:19:11.645Z,13.73
2022-12-25T10:21:41.712Z,16.80
2022-12-25T10:24:24.554Z,18.23
2022-12-25T10:26:57.227Z,13.73
2022-12-25T10:29:31.565Z,14.77
2022-12-25T10:32:00.823Z,11.07
2022-12-25T10:34:29.859Z,12.97
2022-12-25T10:37:01.970Z,15.23
2022-12-25T10:39:31.078Z,12.57
2022-12-25T10:42:31.812Z,16.47
2022-12-25T10:45:02.942Z,13.37
2022-12-25T10:47:34.165Z,11.90
2022-12-25T10:50:11.302Z,13.07
2022-12-25T10:52:55.104Z,7.97
2022-12-25T10:55:28.700Z,15.63
2022-12-25T10:58:02.042Z,8.40
2022-12-25T11:00:33.504Z,7.70
2022-12-25T11:03:02.865Z,10.80
2022-12-25T11:05:33.974Z,20.73
2022-12-25T11:08:04.589Z,12.00
2022-12-25T11:10:36.667Z,22.13
2022-12-25T11:13:18.356Z,16.80
2022-12-25T11:15:49.479Z,11.13
2022-12-25T11:18:21.491Z,12.77
2022-12-25T11:20:52.252Z,9.53
2022-12-25T11:23:22.808Z,13.03
2022-12-25T11:25:59.504Z,9.27
2022-12-25T11:28:31.961Z,16.70
2022-12-25T11:31:03.947Z,12.33
2022-12-25T11:33:38.357Z,6.67
2022-12-25T11:36:18.249Z,9.33
2022-12-25T11:38:47.428Z,10.30
2022-12-25T11:41:20.692Z,14.90
2022-12-25T11:43:57.968Z,9.53
2022-12-25T11:46:32.434Z,7.90
2022-12-25T11:49:06.696Z,10.53
2022-12-25T11:51:40.544Z,16.73
2022-12-25T11:54:18.928Z,6.50
2022-12-25T11:56:48.184Z,15.17
2022-12-25T11:59:25.884Z,8.97
2022-12-25T12:01:59.139Z,14.40
2022-12-25T12:04:38.506Z,13.13
2022-12-25T12:07:20.072Z,18.97
2022-12-25T12:10:04.059Z,16.43
2022-12-25T12:12:48.283Z,11.93
2022-12-25T12:15:28.590Z,14.07
2022-12-25T12:18:09.407Z,16.93
2022-12-25T12:20:38.741Z,14.33
2022-12-25T12:23:17.496Z,17.47
2022-12-25T12:25:46.682Z,14.73
2022-12-25T12:28:23.682Z,11.50
2022-12-25T12:31:05.858Z,14.50
2022-12-25T12:33:38.719Z,19.40
2022-12-25T12:36:12.256Z,11.67
2022-12-25T12:38:43.550Z,11.03
2022-12-25T12:41:14.854Z,6.40
2022-12-25T12:43:48.198Z,11.03
2022-12-25T12:46:28.020Z,13.47
2022-12-25T12:49:10.212Z,16.47
2022-12-25T12:51:41.419Z,12.10
2022-12-25T12:54:21.332Z,16.03
2022-12-25T12:56:58.415Z,11.93
2022-12-25T12:59:35.110Z,13.03
2022-12-25T13:02:26.440Z,10.50
2022-12-25T13:05:03.997Z,13.80
2022-12-25T13:07:44.959Z,16.23
2022-12-25T13:10:24.200Z,18.33
2022-12-25T13:12:56.119Z,11.83
2022-12-25T13:15:28.791Z,14.40
2022-12-25T13:18:03.802Z,13.37
2022-12-25T13:20:41.188Z,9.27
2022-12-25T13:23:27.786Z,15.47
2022-12-25T13:25:58.598Z,12.33
2022-12-25T13:28:29.532Z,18.23
2022-12-25T13:31:07.712Z,14.30
2022-12-25T13:33:39.503Z,14.93
2022-12-25T13:36:12.736Z,12.77
2022-12-25T13:38:46.596Z,15.03
2022-12-25T13:41:37.979Z,14.33
2022-12-25T13:44:18.905Z,12.30
2022-12-25T13:46:48.154Z,11.20
2022-12-25T13:49:20.919Z,14.13
2022-12-25T13:51:50.635Z,10.87
2022-12-25T13:54:20.628Z,22.20
2022-12-25T13:56:52.476Z,13.00
2022-12-25T13:59:24.028Z,15.10
2022-12-25T14:01:54.494Z,16.03
2022-12-25T14:04:25.863Z,18.87
2022-12-25T14:06:54.967Z,17.93
2022-12-25T14:09:24.357Z,18.93
2022-12-25T14:11:54.478Z,13.40
2022-12-25T14:14:26.087Z,18.10
2022-12-25T14:16:59.754Z,14.10
2022-12-25T14:19:31.997Z,13.70
2022-12-25T14:22:03.816Z,15.17
2022-12-25T14:24:34.929Z,11.43
2022-12-25T14:27:06.904Z,13.73
2022-12-25T14:29:39.931Z,21.87
2022-12-25T14:32:14.807Z,11.67
2022-12-25T14:34:47.205Z,15.73
2022-12-25T14:37:20.158Z,10.13
2022-12-25T14:39:57.499Z,15.20
2022-12-25T14:42:28.719Z,11.37
2022-12-25T14:45:00.747Z,18.23
2022-12-25T14:47:30.400Z,16.47
2022-12-25T14:50:01.014Z,10.37
2022-12-25T14:52:34.947Z,14.20
2022-12-25T14:55:08.175Z,15.40
2022-12-25T14:57:41.530Z,11.50
2022-12-25T15:00:23.771Z,17.07
2022-12-25T15:02:55.371Z,11.80
2022-12-25T15:05:32.163Z,13.33
2022-12-25T15:08:23.105Z,13.10
2022-12-25T15:11:02.230Z,9.17
2022-12-25T15:13:32.126Z,8.97
2022-12-25T15:16:10.223Z,12.60
2022-12-25T15:18:42.016Z,18.23
2022-12-25T15:21:17.754Z,19.47
2022-12-25T15:23:47.119Z,16.00
2022-12-25T15:26:17.043Z,11.67
2022-12-25T15:28:46.127Z,13.30
2022-12-25T15:31:25.048Z,14.03
2022-12-25T15:33:55.699Z,16.47
2022-12-25T15:36:26.758Z,17.80
2022-12-25T15:38:55.836Z,11.90
2022-12-25T15:41:45.344Z,11.07
2022-12-25T15:44:15.251Z,15.53
2022-12-25T15:46:45.858Z,15.87
2022-12-25T15:49:15.917Z,19.87
2022-12-25T15:51:47.059Z,13.37
2022-12-25T15:54:16.403Z,10.53
2022-12-25T15:56:48.728Z,20.63
2022-12-25T15:59:19.471Z,10.43
2022-12-25T16:01:51.002Z,12.30
2022-12-25T16:04:21.120Z,11.00
2022-12-25T16:06:51.914Z,15.80
2022-12-25T16:09:21.878Z,15.03
2022-12-25T16:11:51.421Z,7.97
2022-12-25T16:14:21.760Z,13.30
2022-12-25T16:16:50.838Z,12.93
2022-12-25T16:19:19.862Z,10.37
2022-12-25T16:21:50.392Z,11.43
2022-12-25T16:24:19.546Z,10.80
2022-12-25T16:26:48.779Z,14.63
2022-12-25T16:29:18.105Z,10.37
2022-12-25T16:31:47.245Z,11.87
2022-12-25T16:34:16.381Z,9.63
2022-12-25T16:36:46.308Z,10.33
2022-12-25T16:39:16.655Z,11.20
2022-12-25T16:41:45.917Z,13.67
2022-12-25T16:44:15.414Z,9.60
2022-12-25T16:46:44.640Z,11.23
2022-12-25T16:49:13.732Z,14.33
2022-12-25T16:51:42.818Z,8.43
2022-12-25T16:54:11.970Z,9.97
2022-12-25T16:56:42.651Z,8.97
2022-12-25T16:59:12.051Z,20.47
2022-12-25T17:01:43.209Z,9.03
2022-12-25T17:04:12.627Z,13.97
2022-12-25T17:06:41.890Z,14.43
2022-12-25T17:09:10.991Z,13.13
2022-12-25T17:11:41.514Z,11.37
2022-12-25T17:14:12.260Z,11.27
2022-12-25T17:16:41.492Z,8.90
2022-12-25T17:19:18.693Z,11.43
2022-12-25T17:21:48.569Z,17.67
2022-12-25T17:24:18.212Z,15.57
2022-12-25T17:26:49.060Z,12.23
2022-12-25T17:29:21.948Z,13.67
2022-12-25T17:31:52.131Z,12.60
2022-12-25T17:34:21.341Z,13.70
2022-12-25T17:36:50.399Z,7.80
2022-12-25T17:39:19.772Z,8.77
2022-12-25T17:41:52.286Z,11.40
2022-12-25T17:44:22.672Z,11.40
2022-12-25T17:46:52.987Z,11.10
2022-12-25T17:49:23.513Z,10.73
2022-12-25T17:51:54.499Z,18.17
2022-12-25T17:54:23.573Z,20.70
2022-12-25T17:56:53.967Z,9.40
2022-12-25T17:59:28.369Z,10.50
2022-12-25T18:01:57.666Z,8.50
2022-12-25T18:04:26.813Z,9.47
2022-12-25T18:06:55.910Z,10.40
2022-12-25T18:09:25.183Z,16.43
2022-12-25T18:11:55.890Z,16.00
2022-12-25T18:14:24.965Z,13.77
2022-12-25T18:16:54.063Z,11.43
2022-12-25T18:19:23.107Z,8.57
2022-12-25T18:21:52.288Z,10.10
2022-12-25T18:24:21.362Z,12.80
2022-12-25T18:26:50.471Z,10.63
2022-12-25T18:29:20.912Z,10.40
2022-12-25T18:31:50.091Z,7.60
2022-12-25T18:34:19.176Z,8.20
2022-12-25T18:36:48.186Z,9.83
2022-12-25T18:39:17.275Z,10.83
2022-12-25T18:42:08.944Z,8.50
2022-12-25T18:44:39.527Z,10.83
2022-12-25T18:47:08.646Z,11.00
2022-12-25T18:49:37.793Z,9.70
2022-12-25T18:52:48.202Z,10.20
2022-12-25T18:54:56.921Z,17.43
2022-12-25T18:57:26.439Z,9.67
2022-12-25T18:59:56.829Z,8.83
2022-12-25T19:02:25.999Z,13.30
2022-12-25T19:04:55.473Z,13.67
2022-12-25T19:07:24.813Z,11.83
2022-12-25T19:09:53.917Z,13.90
2022-12-25T19:12:23.069Z,12.77
2022-12-25T19:14:52.796Z,12.57
2022-12-25T19:17:27.986Z,10.93
2022-12-25T19:20:00.674Z,7.70
2022-12-25T19:22:30.236Z,10.33
2022-12-25T19:24:59.253Z,7.27
2022-12-25T19:27:28.320Z,10.17
2022-12-25T19:29:57.386Z,7.37
2022-12-25T19:32:28.863Z,7.13
2022-12-25T19:34:57.952Z,6.70
2022-12-25T19:37:26.993Z,7.00
2022-12-25T19:39:56.032Z,8.70
2022-12-25T19:42:25.215Z,6.90
2022-12-25T19:44:55.804Z,6.13
2022-12-25T19:47:25.038Z,7.63
2022-12-25T19:49:58.412Z,5.63
2022-12-25T19:52:31.331Z,8.33
2022-12-25T19:55:00.473Z,4.43
2022-12-25T19:57:29.569Z,6.23
2022-12-25T19:59:58.614Z,5.27
2022-12-25T20:02:27.826Z,5.83
2022-12-25T20:04:58.326Z,5.30
2022-12-25T20:07:27.505Z,6.13
2022-12-25T20:09:56.520Z,7.07
2022-12-25T20:12:25.544Z,6.07
2022-12-25T20:14:54.636Z,6.20
2022-12-25T20:17:23.681Z,6.50
2022-12-25T20:19:52.749Z,4.93
2022-12-25T20:22:23.205Z,5.60
2022-12-25T20:24:52.305Z,5.90
2022-12-25T20:27:21.409Z,5.77
2022-12-25T20:29:50.482Z,6.33
2022-12-25T20:32:19.764Z,4.67
2022-12-25T20:34:48.909Z,4.47
2022-12-25T20:37:17.986Z,9.60
2022-12-25T20:39:48.385Z,6.07
2022-12-25T20:42:17.434Z,7.20
2022-12-25T20:44:46.666Z,7.87
2022-12-25T20:47:15.753Z,8.10
2022-12-25T20:49:44.877Z,7.37
2022-12-25T20:52:13.994Z,8.67
2022-12-25T20:54:43.482Z,7.53
2022-12-25T20:57:13.922Z,8.47
2022-12-25T20:59:44.364Z,7.37
2022-12-25T21:02:35.246Z,8.87
2022-12-25T21:05:02.766Z,7.97
2022-12-25T21:07:31.815Z,13.07
2022-12-25T21:10:00.896Z,7.63
2022-12-25T21:12:31.339Z,6.13
2022-12-25T21:15:00.575Z,5.73
2022-12-25T21:17:29.816Z,6.33
2022-12-25T21:19:58.963Z,7.57
2022-12-25T21:22:28.120Z,7.87
2022-12-25T21:24:57.447Z,7.63
2022-12-25T21:27:26.560Z,8.80
2022-12-25T21:29:57.021Z,7.90
2022-12-25T21:32:43.624Z,7.67
2022-12-25T21:35:12.921Z,6.57
2022-12-25T21:37:42.098Z,4.90
2022-12-25T21:40:16.363Z,10.30
2022-12-25T21:42:45.748Z,7.30
2022-12-25T21:45:16.393Z,7.23
2022-12-25T21:48:02.596Z,9.10
2022-12-25T21:50:49.950Z,7.83
2022-12-25T21:53:20.320Z,8.50
2022-12-25T21:55:59.173Z,8.57
2022-12-25T21:58:28.304Z,7.37
2022-12-25T22:01:03.290Z,8.20
2022-12-25T22:03:32.416Z,8.00
2022-12-25T22:06:21.668Z,6.87
2022-12-25T22:08:51.044Z,8.10
2022-12-25T22:11:37.920Z,8.60
2022-12-25T22:14:52.874Z,8.53
2022-12-25T22:17:33.636Z,13.77
2022-12-25T22:20:02.992Z,12.37
2022-12-25T22:22:32.702Z,8.70
2022-12-25T22:25:03.732Z,8.57
2022-12-25T22:27:34.579Z,8.87
2022-12-25T22:30:03.850Z,8.53
2022-12-25T22:32:34.424Z,9.13
2022-12-25T22:35:03.731Z,9.13
2022-12-25T22:37:32.828Z,8.53
2022-12-25T22:40:02.444Z,9.77
2022-12-25T22:42:31.526Z,9.63
2022-12-25T22:45:00.584Z,10.67
2022-12-25T22:47:29.684Z,12.27
2022-12-25T22:50:00.146Z,9.10
2022-12-25T22:52:29.207Z,9.67
2022-12-25T22:54:58.255Z,13.23
2022-12-25T22:57:27.346Z,10.90
2022-12-25T22:59:56.437Z,9.57
2022-12-25T23:02:25.649Z,10.77
2022-12-25T23:04:55.362Z,9.33
2022-12-25T23:07:25.740Z,9.47
2022-12-25T23:09:54.769Z,11.23
2022-12-25T23:12:41.443Z,8.73
2022-12-25T23:15:11.207Z,10.10
2022-12-25T23:17:57.832Z,12.40
2022-12-25T23:20:44.324Z,12.77
2022-12-25T23:23:34.819Z,9.57
2022-12-25T23:26:10.712Z,13.50
2022-12-25T23:28:59.811Z,25.43
2022-12-25T23:31:32.736Z,12.23
2022-12-25T23:34:02.486Z,10.97
2022-12-25T23:36:31.496Z,12.83
2022-12-25T23:39:08.989Z,10.63
2022-12-25T23:41:40.063Z,9.17
2022-12-25T23:44:09.764Z,11.33
2022-12-25T23:46:39.405Z,9.17
2022-12-25T23:49:09.577Z,11.97
2022-12-25T23:51:39.725Z,17.97
2022-12-25T23:54:11.024Z,21.73
2022-12-25T23:56:40.674Z,15.10
2022-12-25T23:59:10.433Z,16.40
